Aviation Digital Data Service (ADDS)

Output produced by METARs form (1633 UTC 30 October 2020)
found at http://www.aviationweather.gov/metar/data/
 
KMCO 301553Z 34007KT 10SM FEW250 23/12 A3001 RMK AO2 SLP161 T02280122
KMCO 301502Z 3015/3118 35010KT P6SM FEW250 
     FM302300 01007KT P6SM SKC 
     FM311500 06009KT P6SM FEW030